sensor_id;sensor_type;location;lat;lon;timestamp;P1;durP1;ratioP1;P2;durP2;ratioP2
2824;SDS011;1420;51.324;12.344;2022-11-14T00:01:54;40.88;;;18.50;;
2824;SDS011;1420;51.324;12.344;2022-11-14T00:04:22;43.25;;;17.17;;
2824;SDS011;1420;51.324;12.344;2022-11-14T00:06:50;46.10;;;21.15;;
2824;SDS011;1420;51.324;12.344;2022-11-14T00:09:18;46.23;;;22.42;;
2824;SDS011;1420;51.324;12.344;2022-11-14T00:11:46;44.27;;;19.85;;
2824;SDS011;1420;51.324;12.344;2022-11-14T00:14:13;45.03;;;23.23;;
2824;SDS011;1420;51.324;12.344;2022-11-14T00:16:41;40.37;;;22.77;;
2824;SDS011;1420;51.324;12.344;2022-11-14T00:19:09;44.62;;;22.82;;
2824;SDS011;1420;51.324;12.344;2022-11-14T00:21:37;45.10;;;16.53;;
2824;SDS011;1420;51.324;12.344;2022-11-14T00:24:05;45.92;;;22.07;;
2824;SDS011;1420;51.324;12.344;2022-11-14T00:26:33;53.68;;;21.38;;
2824;SDS011;1420;51.324;12.344;2022-11-14T00:29:00;46.27;;;20.33;;
2824;SDS011;1420;51.324;12.344;2022-11-14T00:31:27;45.53;;;17.67;;
2824;SDS011;1420;51.324;12.344;2022-11-14T00:33:54;49.53;;;19.57;;
2824;SDS011;1420;51.324;12.344;2022-11-14T00:36:21;51.47;;;20.05;;
2824;SDS011;1420;51.324;12.344;2022-11-14T00:38:51;43.93;;;17.35;;
2824;SDS011;1420;51.324;12.344;2022-11-14T00:41:16;45.20;;;18.90;;
2824;SDS011;1420;51.324;12.344;2022-11-14T00:43:43;42.73;;;19.08;;
2824;SDS011;1420;51.324;12.344;2022-11-14T00:46:10;42.77;;;23.10;;
2824;SDS011;1420;51.324;12.344;2022-11-14T00:48:38;43.48;;;19.35;;
2824;SDS011;1420;51.324;12.344;2022-11-14T00:51:06;39.58;;;17.80;;
2824;SDS011;1420;51.324;12.344;2022-11-14T00:53:34;46.20;;;18.70;;
2824;SDS011;1420;51.324;12.344;2022-11-14T00:56:02;43.90;;;19.38;;
2824;SDS011;1420;51.324;12.344;2022-11-14T00:58:29;43.70;;;18.62;;
2824;SDS011;1420;51.324;12.344;2022-11-14T01:00:56;43.85;;;16.37;;
2824;SDS011;1420;51.324;12.344;2022-11-14T01:03:23;45.82;;;25.90;;
2824;SDS011;1420;51.324;12.344;2022-11-14T01:05:50;41.93;;;18.13;;
2824;SDS011;1420;51.324;12.344;2022-11-14T01:08:18;51.93;;;27.42;;
2824;SDS011;1420;51.324;12.344;2022-11-14T01:10:46;48.65;;;23.30;;
2824;SDS011;1420;51.324;12.344;2022-11-14T01:13:12;45.12;;;22.43;;
2824;SDS011;1420;51.324;12.344;2022-11-14T01:15:40;45.98;;;23.38;;
2824;SDS011;1420;51.324;12.344;2022-11-14T01:18:09;45.15;;;16.63;;
2824;SDS011;1420;51.324;12.344;2022-11-14T01:20:37;44.03;;;18.02;;
2824;SDS011;1420;51.324;12.344;2022-11-14T01:23:05;43.48;;;21.73;;
2824;SDS011;1420;51.324;12.344;2022-11-14T01:25:33;43.50;;;24.23;;
2824;SDS011;1420;51.324;12.344;2022-11-14T01:28:01;46.20;;;19.85;;
2824;SDS011;1420;51.324;12.344;2022-11-14T01:30:29;40.58;;;16.75;;
2824;SDS011;1420;51.324;12.344;2022-11-14T01:32:57;39.48;;;17.57;;
2824;SDS011;1420;51.324;12.344;2022-11-14T01:35:25;48.08;;;20.40;;
2824;SDS011;1420;51.324;12.344;2022-11-14T01:37:53;46.60;;;25.50;;
2824;SDS011;1420;51.324;12.344;2022-11-14T01:40:20;44.58;;;19.62;;
2824;SDS011;1420;51.324;12.344;2022-11-14T01:48:25;46.12;;;19.12;;
2824;SDS011;1420;51.324;12.344;2022-11-14T01:51:00;42.27;;;19.98;;
2824;SDS011;1420;51.324;12.344;2022-11-14T01:53:25;39.60;;;18.33;;
2824;SDS011;1420;51.324;12.344;2022-11-14T01:55:53;42.52;;;17.30;;
2824;SDS011;1420;51.324;12.344;2022-11-14T01:58:20;45.77;;;21.63;;
2824;SDS011;1420;51.324;12.344;2022-11-14T02:00:47;42.98;;;16.78;;
2824;SDS011;1420;51.324;12.344;2022-11-14T02:03:15;42.05;;;18.90;;
2824;SDS011;1420;51.324;12.344;2022-11-14T02:05:41;41.93;;;16.95;;
2824;SDS011;1420;51.324;12.344;2022-11-14T02:08:09;44.10;;;17.92;;
2824;SDS011;1420;51.324;12.344;2022-11-14T02:10:36;41.10;;;19.73;;
2824;SDS011;1420;51.324;12.344;2022-11-14T02:13:03;39.60;;;18.47;;
2824;SDS011;1420;51.324;12.344;2022-11-14T02:15:31;41.42;;;18.02;;
2824;SDS011;1420;51.324;12.344;2022-11-14T02:17:58;43.18;;;22.77;;
2824;SDS011;1420;51.324;12.344;2022-11-14T02:20:25;53.72;;;36.15;;
2824;SDS011;1420;51.324;12.344;2022-11-14T02:22:54;47.68;;;27.85;;
2824;SDS011;1420;51.324;12.344;2022-11-14T02:25:21;45.72;;;22.85;;
2824;SDS011;1420;51.324;12.344;2022-11-14T02:27:48;46.27;;;21.43;;
2824;SDS011;1420;51.324;12.344;2022-11-14T02:30:18;39.28;;;21.78;;
2824;SDS011;1420;51.324;12.344;2022-11-14T02:32:43;44.98;;;19.60;;
2824;SDS011;1420;51.324;12.344;2022-11-14T02:35:11;44.67;;;23.97;;
2824;SDS011;1420;51.324;12.344;2022-11-14T02:37:38;44.45;;;25.38;;
2824;SDS011;1420;51.324;12.344;2022-11-14T02:40:05;44.68;;;21.20;;
2824;SDS011;1420;51.324;12.344;2022-11-14T02:42:33;40.53;;;19.97;;
2824;SDS011;1420;51.324;12.344;2022-11-14T02:45:00;36.90;;;18.28;;
2824;SDS011;1420;51.324;12.344;2022-11-14T02:47:28;40.58;;;21.10;;
2824;SDS011;1420;51.324;12.344;2022-11-14T02:49:56;43.52;;;24.03;;
2824;SDS011;1420;51.324;12.344;2022-11-14T02:52:24;36.08;;;19.83;;
2824;SDS011;1420;51.324;12.344;2022-11-14T02:54:52;42.60;;;15.85;;
2824;SDS011;1420;51.324;12.344;2022-11-14T02:57:19;42.80;;;18.17;;
2824;SDS011;1420;51.324;12.344;2022-11-14T02:59:47;42.35;;;19.57;;
2824;SDS011;1420;51.324;12.344;2022-11-14T03:02:15;46.28;;;21.05;;
2824;SDS011;1420;51.324;12.344;2022-11-14T03:04:43;45.47;;;19.32;;
2824;SDS011;1420;51.324;12.344;2022-11-14T03:07:10;40.92;;;22.23;;
2824;SDS011;1420;51.324;12.344;2022-11-14T03:09:38;48.93;;;20.55;;
2824;SDS011;1420;51.324;12.344;2022-11-14T03:12:05;45.75;;;22.63;;
2824;SDS011;1420;51.324;12.344;2022-11-14T03:14:32;53.05;;;22.05;;
2824;SDS011;1420;51.324;12.344;2022-11-14T03:17:00;39.77;;;18.60;;
2824;SDS011;1420;51.324;12.344;2022-11-14T03:19:28;41.23;;;18.65;;
2824;SDS011;1420;51.324;12.344;2022-11-14T03:21:56;43.05;;;17.83;;
2824;SDS011;1420;51.324;12.344;2022-11-14T03:24:24;39.38;;;17.95;;
2824;SDS011;1420;51.324;12.344;2022-11-14T03:26:52;41.58;;;15.57;;
2824;SDS011;1420;51.324;12.344;2022-11-14T03:29:19;37.27;;;18.13;;
2824;SDS011;1420;51.324;12.344;2022-11-14T03:31:46;39.90;;;20.68;;
2824;SDS011;1420;51.324;12.344;2022-11-14T03:34:13;38.10;;;18.73;;
2824;SDS011;1420;51.324;12.344;2022-11-14T03:36:41;39.00;;;15.83;;
2824;SDS011;1420;51.324;12.344;2022-11-14T03:39:08;40.92;;;16.15;;
2824;SDS011;1420;51.324;12.344;2022-11-14T03:41:36;43.12;;;15.90;;
2824;SDS011;1420;51.324;12.344;2022-11-14T03:44:04;47.12;;;26.12;;
2824;SDS011;1420;51.324;12.344;2022-11-14T03:46:32;44.90;;;23.45;;
2824;SDS011;1420;51.324;12.344;2022-11-14T03:49:00;48.98;;;28.52;;
2824;SDS011;1420;51.324;12.344;2022-11-14T03:51:28;44.37;;;16.85;;
2824;SDS011;1420;51.324;12.344;2022-11-14T03:53:55;44.92;;;23.23;;
2824;SDS011;1420;51.324;12.344;2022-11-14T03:56:22;43.10;;;18.45;;
2824;SDS011;1420;51.324;12.344;2022-11-14T03:58:50;44.20;;;20.87;;
2824;SDS011;1420;51.324;12.344;2022-11-14T04:01:17;41.20;;;20.75;;
2824;SDS011;1420;51.324;12.344;2022-11-14T04:03:45;37.12;;;19.70;;
2824;SDS011;1420;51.324;12.344;2022-11-14T04:06:12;38.80;;;19.32;;
2824;SDS011;1420;51.324;12.344;2022-11-14T04:08:39;41.22;;;20.47;;
2824;SDS011;1420;51.324;12.344;2022-11-14T04:11:06;38.90;;;16.62;;
2824;SDS011;1420;51.324;12.344;2022-11-14T04:13:33;45.77;;;24.97;;
2824;SDS011;1420;51.324;12.344;2022-11-14T04:16:01;41.78;;;18.07;;
2824;SDS011;1420;51.324;12.344;2022-11-14T04:18:28;43.15;;;18.82;;
2824;SDS011;1420;51.324;12.344;2022-11-14T04:20:55;38.68;;;18.68;;
2824;SDS011;1420;51.324;12.344;2022-11-14T04:23:22;41.85;;;16.88;;
2824;SDS011;1420;51.324;12.344;2022-11-14T04:25:49;39.87;;;12.85;;
2824;SDS011;1420;51.324;12.344;2022-11-14T04:28:17;45.30;;;17.78;;
2824;SDS011;1420;51.324;12.344;2022-11-14T04:30:44;37.80;;;16.92;;
2824;SDS011;1420;51.324;12.344;2022-11-14T04:33:11;37.68;;;18.07;;
2824;SDS011;1420;51.324;12.344;2022-11-14T04:35:38;38.58;;;16.65;;
2824;SDS011;1420;51.324;12.344;2022-11-14T04:38:06;34.10;;;13.82;;
2824;SDS011;1420;51.324;12.344;2022-11-14T04:40:34;44.07;;;20.37;;
2824;SDS011;1420;51.324;12.344;2022-11-14T04:43:01;43.87;;;14.83;;
2824;SDS011;1420;51.324;12.344;2022-11-14T04:45:29;40.47;;;14.80;;
2824;SDS011;1420;51.324;12.344;2022-11-14T04:47:56;40.90;;;16.20;;
2824;SDS011;1420;51.324;12.344;2022-11-14T04:50:23;41.30;;;15.62;;
2824;SDS011;1420;51.324;12.344;2022-11-14T04:52:51;43.07;;;17.78;;
2824;SDS011;1420;51.324;12.344;2022-11-14T04:55:17;41.52;;;19.28;;
2824;SDS011;1420;51.324;12.344;2022-11-14T04:57:45;40.23;;;17.53;;
2824;SDS011;1420;51.324;12.344;2022-11-14T05:00:12;44.48;;;15.60;;
2824;SDS011;1420;51.324;12.344;2022-11-14T05:02:40;39.02;;;18.08;;
2824;SDS011;1420;51.324;12.344;2022-11-14T05:05:08;35.97;;;15.85;;
2824;SDS011;1420;51.324;12.344;2022-11-14T05:07:35;42.23;;;16.30;;
2824;SDS011;1420;51.324;12.344;2022-11-14T05:10:03;39.53;;;16.62;;
2824;SDS011;1420;51.324;12.344;2022-11-14T05:12:30;44.32;;;18.42;;
2824;SDS011;1420;51.324;12.344;2022-11-14T05:14:57;42.12;;;14.53;;
2824;SDS011;1420;51.324;12.344;2022-11-14T05:17:25;39.60;;;15.57;;
2824;SDS011;1420;51.324;12.344;2022-11-14T05:19:52;45.30;;;16.27;;
2824;SDS011;1420;51.324;12.344;2022-11-14T05:22:20;37.77;;;15.37;;
2824;SDS011;1420;51.324;12.344;2022-11-14T05:24:48;37.95;;;18.10;;
2824;SDS011;1420;51.324;12.344;2022-11-14T05:27:16;39.20;;;16.08;;
2824;SDS011;1420;51.324;12.344;2022-11-14T05:29:44;34.90;;;17.65;;
2824;SDS011;1420;51.324;12.344;2022-11-14T05:32:12;39.67;;;19.78;;
2824;SDS011;1420;51.324;12.344;2022-11-14T05:34:40;43.60;;;19.73;;
2824;SDS011;1420;51.324;12.344;2022-11-14T05:37:07;43.88;;;18.68;;
2824;SDS011;1420;51.324;12.344;2022-11-14T05:39:35;48.35;;;17.40;;
2824;SDS011;1420;51.324;12.344;2022-11-14T05:42:02;40.85;;;16.65;;
2824;SDS011;1420;51.324;12.344;2022-11-14T05:44:29;36.60;;;14.75;;
2824;SDS011;1420;51.324;12.344;2022-11-14T05:46:56;39.37;;;16.35;;
2824;SDS011;1420;51.324;12.344;2022-11-14T05:49:25;44.42;;;17.87;;
2824;SDS011;1420;51.324;12.344;2022-11-14T05:51:54;46.92;;;19.50;;
2824;SDS011;1420;51.324;12.344;2022-11-14T05:54:22;51.42;;;17.80;;
2824;SDS011;1420;51.324;12.344;2022-11-14T05:56:49;51.03;;;25.47;;
2824;SDS011;1420;51.324;12.344;2022-11-14T05:59:17;48.87;;;22.82;;
2824;SDS011;1420;51.324;12.344;2022-11-14T06:01:44;51.45;;;18.85;;
2824;SDS011;1420;51.324;12.344;2022-11-14T06:04:12;52.37;;;25.25;;
2824;SDS011;1420;51.324;12.344;2022-11-14T06:06:40;46.23;;;21.52;;
2824;SDS011;1420;51.324;12.344;2022-11-14T06:09:08;50.47;;;25.35;;
2824;SDS011;1420;51.324;12.344;2022-11-14T06:11:36;48.47;;;19.48;;
2824;SDS011;1420;51.324;12.344;2022-11-14T06:14:03;50.30;;;23.73;;
2824;SDS011;1420;51.324;12.344;2022-11-14T06:16:31;50.62;;;19.45;;
2824;SDS011;1420;51.324;12.344;2022-11-14T06:18:59;50.68;;;17.05;;
2824;SDS011;1420;51.324;12.344;2022-11-14T06:21:27;51.57;;;19.68;;
2824;SDS011;1420;51.324;12.344;2022-11-14T06:23:55;57.18;;;23.90;;
2824;SDS011;1420;51.324;12.344;2022-11-14T06:26:25;46.37;;;23.05;;
2824;SDS011;1420;51.324;12.344;2022-11-14T06:28:52;45.68;;;20.52;;
2824;SDS011;1420;51.324;12.344;2022-11-14T06:31:20;47.57;;;18.43;;
2824;SDS011;1420;51.324;12.344;2022-11-14T06:33:46;47.37;;;20.40;;
2824;SDS011;1420;51.324;12.344;2022-11-14T06:36:13;48.42;;;21.12;;
2824;SDS011;1420;51.324;12.344;2022-11-14T06:38:40;48.82;;;18.68;;
2824;SDS011;1420;51.324;12.344;2022-11-14T06:41:09;44.25;;;14.92;;
2824;SDS011;1420;51.324;12.344;2022-11-14T06:43:35;44.22;;;22.18;;
2824;SDS011;1420;51.324;12.344;2022-11-14T06:46:03;38.82;;;14.98;;
2824;SDS011;1420;51.324;12.344;2022-11-14T06:48:30;40.13;;;19.53;;
2824;SDS011;1420;51.324;12.344;2022-11-14T06:50:57;44.50;;;16.38;;
2824;SDS011;1420;51.324;12.344;2022-11-14T06:53:25;38.12;;;21.67;;
2824;SDS011;1420;51.324;12.344;2022-11-14T06:55:53;38.67;;;17.75;;
2824;SDS011;1420;51.324;12.344;2022-11-14T06:58:20;38.17;;;12.98;;
2824;SDS011;1420;51.324;12.344;2022-11-14T07:00:47;43.50;;;18.22;;
2824;SDS011;1420;51.324;12.344;2022-11-14T07:03:14;39.63;;;17.10;;
2824;SDS011;1420;51.324;12.344;2022-11-14T07:05:41;40.48;;;17.12;;
2824;SDS011;1420;51.324;12.344;2022-11-14T07:08:08;41.87;;;16.28;;
2824;SDS011;1420;51.324;12.344;2022-11-14T07:10:36;54.62;;;21.78;;
2824;SDS011;1420;51.324;12.344;2022-11-14T07:13:03;49.05;;;17.45;;
2824;SDS011;1420;51.324;12.344;2022-11-14T07:15:30;53.37;;;17.90;;
2824;SDS011;1420;51.324;12.344;2022-11-14T07:17:57;34.45;;;13.60;;
2824;SDS011;1420;51.324;12.344;2022-11-14T07:20:24;40.53;;;16.15;;
2824;SDS011;1420;51.324;12.344;2022-11-14T07:22:52;88.92;;;31.75;;
2824;SDS011;1420;51.324;12.344;2022-11-14T07:25:19;52.20;;;22.13;;
2824;SDS011;1420;51.324;12.344;2022-11-14T07:27:46;41.78;;;18.17;;
2824;SDS011;1420;51.324;12.344;2022-11-14T07:30:14;46.20;;;18.88;;
2824;SDS011;1420;51.324;12.344;2022-11-14T07:32:41;39.30;;;16.55;;
2824;SDS011;1420;51.324;12.344;2022-11-14T07:35:08;31.72;;;12.70;;
2824;SDS011;1420;51.324;12.344;2022-11-14T07:37:35;29.28;;;14.10;;
2824;SDS011;1420;51.324;12.344;2022-11-14T07:40:03;31.05;;;12.80;;
2824;SDS011;1420;51.324;12.344;2022-11-14T07:42:30;27.42;;;12.67;;
2824;SDS011;1420;51.324;12.344;2022-11-14T07:44:57;33.93;;;12.60;;
2824;SDS011;1420;51.324;12.344;2022-11-14T07:47:25;34.65;;;13.32;;
2824;SDS011;1420;51.324;12.344;2022-11-14T07:49:52;39.88;;;16.17;;
2824;SDS011;1420;51.324;12.344;2022-11-14T07:52:19;41.10;;;15.75;;
2824;SDS011;1420;51.324;12.344;2022-11-14T07:54:47;40.07;;;14.27;;
2824;SDS011;1420;51.324;12.344;2022-11-14T07:57:14;43.82;;;14.00;;
2824;SDS011;1420;51.324;12.344;2022-11-14T07:59:41;38.60;;;15.15;;
2824;SDS011;1420;51.324;12.344;2022-11-14T08:02:11;37.13;;;13.50;;
2824;SDS011;1420;51.324;12.344;2022-11-14T08:04:38;40.60;;;13.73;;
2824;SDS011;1420;51.324;12.344;2022-11-14T08:07:06;34.55;;;11.95;;
2824;SDS011;1420;51.324;12.344;2022-11-14T08:09:34;36.83;;;12.25;;
2824;SDS011;1420;51.324;12.344;2022-11-14T08:12:02;36.42;;;12.85;;
2824;SDS011;1420;51.324;12.344;2022-11-14T08:14:29;49.85;;;16.80;;
2824;SDS011;1420;51.324;12.344;2022-11-14T08:16:56;37.73;;;14.02;;
2824;SDS011;1420;51.324;12.344;2022-11-14T08:19:23;38.75;;;13.62;;
2824;SDS011;1420;51.324;12.344;2022-11-14T08:21:50;43.40;;;14.72;;
2824;SDS011;1420;51.324;12.344;2022-11-14T08:24:18;43.50;;;14.45;;
2824;SDS011;1420;51.324;12.344;2022-11-14T08:26:45;37.67;;;14.03;;
2824;SDS011;1420;51.324;12.344;2022-11-14T08:29:12;35.50;;;13.27;;
2824;SDS011;1420;51.324;12.344;2022-11-14T08:31:39;31.12;;;11.97;;
2824;SDS011;1420;51.324;12.344;2022-11-14T08:34:07;39.13;;;13.98;;
2824;SDS011;1420;51.324;12.344;2022-11-14T08:36:34;37.32;;;12.93;;
2824;SDS011;1420;51.324;12.344;2022-11-14T08:39:01;40.42;;;11.70;;
2824;SDS011;1420;51.324;12.344;2022-11-14T08:41:29;32.40;;;12.32;;
2824;SDS011;1420;51.324;12.344;2022-11-14T08:43:57;38.12;;;14.53;;
2824;SDS011;1420;51.324;12.344;2022-11-14T08:46:25;33.68;;;12.88;;
2824;SDS011;1420;51.324;12.344;2022-11-14T08:48:53;36.80;;;12.98;;
2824;SDS011;1420;51.324;12.344;2022-11-14T08:51:21;37.30;;;14.38;;
2824;SDS011;1420;51.324;12.344;2022-11-14T08:53:49;37.60;;;13.40;;
2824;SDS011;1420;51.324;12.344;2022-11-14T08:56:17;34.28;;;14.67;;
2824;SDS011;1420;51.324;12.344;2022-11-14T08:58:45;32.27;;;12.12;;
2824;SDS011;1420;51.324;12.344;2022-11-14T09:01:13;34.05;;;13.35;;
2824;SDS011;1420;51.324;12.344;2022-11-14T09:03:41;30.38;;;12.08;;
2824;SDS011;1420;51.324;12.344;2022-11-14T09:06:09;45.45;;;15.43;;
2824;SDS011;1420;51.324;12.344;2022-11-14T09:08:36;43.45;;;16.18;;
2824;SDS011;1420;51.324;12.344;2022-11-14T09:11:04;37.85;;;13.33;;
2824;SDS011;1420;51.324;12.344;2022-11-14T09:13:33;36.75;;;14.40;;
2824;SDS011;1420;51.324;12.344;2022-11-14T09:15:59;40.52;;;16.23;;
2824;SDS011;1420;51.324;12.344;2022-11-14T09:18:27;35.98;;;15.52;;
2824;SDS011;1420;51.324;12.344;2022-11-14T09:21:01;43.22;;;15.90;;
2824;SDS011;1420;51.324;12.344;2022-11-14T09:23:27;38.68;;;15.47;;
2824;SDS011;1420;51.324;12.344;2022-11-14T09:25:55;38.77;;;15.90;;
2824;SDS011;1420;51.324;12.344;2022-11-14T09:28:23;32.37;;;15.52;;
2824;SDS011;1420;51.324;12.344;2022-11-14T09:30:51;36.77;;;14.32;;
2824;SDS011;1420;51.324;12.344;2022-11-14T09:33:19;36.48;;;15.30;;
2824;SDS011;1420;51.324;12.344;2022-11-14T09:35:47;36.85;;;15.43;;
2824;SDS011;1420;51.324;12.344;2022-11-14T09:38:14;33.50;;;14.28;;
2824;SDS011;1420;51.324;12.344;2022-11-14T09:40:49;35.48;;;14.65;;
2824;SDS011;1420;51.324;12.344;2022-11-14T09:43:17;38.25;;;14.17;;
2824;SDS011;1420;51.324;12.344;2022-11-14T09:45:42;36.83;;;14.40;;
2824;SDS011;1420;51.324;12.344;2022-11-14T09:48:11;39.48;;;14.72;;
2824;SDS011;1420;51.324;12.344;2022-11-14T09:50:40;38.35;;;15.97;;
2824;SDS011;1420;51.324;12.344;2022-11-14T09:53:09;33.93;;;13.57;;
2824;SDS011;1420;51.324;12.344;2022-11-14T09:55:34;32.03;;;15.20;;
2824;SDS011;1420;51.324;12.344;2022-11-14T09:58:03;32.53;;;13.75;;
2824;SDS011;1420;51.324;12.344;2022-11-14T10:00:38;24.87;;;11.60;;
2824;SDS011;1420;51.324;12.344;2022-11-14T10:03:06;24.12;;;10.24;;
2824;SDS011;1420;51.324;12.344;2022-11-14T10:05:35;24.78;;;11.04;;
2824;SDS011;1420;51.324;12.344;2022-11-14T10:10:52;23.48;;;11.46;;
2824;SDS011;1420;51.324;12.344;2022-11-14T10:13:29;22.98;;;11.54;;
2824;SDS011;1420;51.324;12.344;2022-11-14T10:18:49;19.54;;;9.92;;
2824;SDS011;1420;51.324;12.344;2022-11-14T10:21:34;23.96;;;10.24;;
2824;SDS011;1420;51.324;12.344;2022-11-14T10:24:24;23.52;;;10.84;;
2824;SDS011;1420;51.324;12.344;2022-11-14T10:26:58;22.12;;;11.10;;
2824;SDS011;1420;51.324;12.344;2022-11-14T10:32:18;25.22;;;11.40;;
2824;SDS011;1420;51.324;12.344;2022-11-14T10:35:34;22.58;;;9.98;;
2824;SDS011;1420;51.324;12.344;2022-11-14T10:37:54;26.42;;;10.20;;
2824;SDS011;1420;51.324;12.344;2022-11-14T10:40:18;27.68;;;10.96;;
2824;SDS011;1420;51.324;12.344;2022-11-14T10:42:46;23.00;;;9.28;;
2824;SDS011;1420;51.324;12.344;2022-11-14T10:47:51;26.90;;;10.50;;
2824;SDS011;1420;51.324;12.344;2022-11-14T10:50:19;25.38;;;9.18;;
2824;SDS011;1420;51.324;12.344;2022-11-14T10:52:46;26.42;;;10.22;;
2824;SDS011;1420;51.324;12.344;2022-11-14T10:55:16;28.30;;;11.88;;
2824;SDS011;1420;51.324;12.344;2022-11-14T10:57:42;26.14;;;11.10;;
2824;SDS011;1420;51.324;12.344;2022-11-14T11:00:11;28.96;;;9.70;;
2824;SDS011;1420;51.324;12.344;2022-11-14T11:05:22;27.92;;;10.28;;
2824;SDS011;1420;51.324;12.344;2022-11-14T11:07:49;27.74;;;10.70;;
2824;SDS011;1420;51.324;12.344;2022-11-14T11:10:22;26.06;;;9.24;;
2824;SDS011;1420;51.324;12.344;2022-11-14T11:12:55;22.06;;;8.34;;
2824;SDS011;1420;51.324;12.344;2022-11-14T11:15:24;26.02;;;9.42;;
2824;SDS011;1420;51.324;12.344;2022-11-14T11:17:56;25.66;;;8.34;;
2824;SDS011;1420;51.324;12.344;2022-11-14T11:20:23;27.34;;;9.54;;
2824;SDS011;1420;51.324;12.344;2022-11-14T11:23:00;25.80;;;8.20;;
2824;SDS011;1420;51.324;12.344;2022-11-14T11:25:25;24.84;;;8.82;;
2824;SDS011;1420;51.324;12.344;2022-11-14T11:28:23;23.94;;;8.68;;
2824;SDS011;1420;51.324;12.344;2022-11-14T11:30:34;23.62;;;7.82;;
2824;SDS011;1420;51.324;12.344;2022-11-14T11:35:55;21.42;;;6.98;;
2824;SDS011;1420;51.324;12.344;2022-11-14T11:38:21;23.68;;;7.50;;
2824;SDS011;1420;51.324;12.344;2022-11-14T11:40:50;28.84;;;15.02;;
2824;SDS011;1420;51.324;12.344;2022-11-14T11:43:49;23.36;;;7.70;;
2824;SDS011;1420;51.324;12.344;2022-11-14T11:46:02;25.42;;;6.94;;
2824;SDS011;1420;51.324;12.344;2022-11-14T11:48:33;22.60;;;7.44;;
2824;SDS011;1420;51.324;12.344;2022-11-14T11:51:05;21.76;;;6.90;;
2824;SDS011;1420;51.324;12.344;2022-11-14T11:53:33;22.10;;;7.88;;
2824;SDS011;1420;51.324;12.344;2022-11-14T11:56:08;22.86;;;7.14;;
2824;SDS011;1420;51.324;12.344;2022-11-14T11:58:37;21.46;;;7.72;;
2824;SDS011;1420;51.324;12.344;2022-11-14T12:01:17;21.92;;;7.24;;
2824;SDS011;1420;51.324;12.344;2022-11-14T12:03:47;22.02;;;8.34;;
2824;SDS011;1420;51.324;12.344;2022-11-14T12:06:15;22.94;;;7.32;;
2824;SDS011;1420;51.324;12.344;2022-11-14T12:08:57;22.92;;;7.64;;
2824;SDS011;1420;51.324;12.344;2022-11-14T12:11:21;21.96;;;7.02;;
2824;SDS011;1420;51.324;12.344;2022-11-14T12:13:58;22.24;;;6.32;;
2824;SDS011;1420;51.324;12.344;2022-11-14T12:16:27;23.28;;;6.82;;
2824;SDS011;1420;51.324;12.344;2022-11-14T12:18:57;21.88;;;7.54;;
2824;SDS011;1420;51.324;12.344;2022-11-14T12:21:57;22.86;;;7.52;;
2824;SDS011;1420;51.324;12.344;2022-11-14T12:24:32;20.58;;;6.36;;
2824;SDS011;1420;51.324;12.344;2022-11-14T12:27:18;20.42;;;6.92;;
2824;SDS011;1420;51.324;12.344;2022-11-14T12:32:16;21.26;;;6.16;;
2824;SDS011;1420;51.324;12.344;2022-11-14T12:34:43;20.60;;;5.90;;
2824;SDS011;1420;51.324;12.344;2022-11-14T12:37:14;21.10;;;8.70;;
2824;SDS011;1420;51.324;12.344;2022-11-14T12:39:40;22.40;;;7.10;;
2824;SDS011;1420;51.324;12.344;2022-11-14T12:42:08;19.36;;;6.22;;
2824;SDS011;1420;51.324;12.344;2022-11-14T12:44:36;19.70;;;6.16;;
2824;SDS011;1420;51.324;12.344;2022-11-14T12:47:18;20.36;;;6.14;;
2824;SDS011;1420;51.324;12.344;2022-11-14T12:58:04;19.94;;;5.92;;
2824;SDS011;1420;51.324;12.344;2022-11-14T13:00:37;20.82;;;6.26;;
2824;SDS011;1420;51.324;12.344;2022-11-14T13:06:03;19.26;;;6.16;;
2824;SDS011;1420;51.324;12.344;2022-11-14T13:08:41;20.22;;;6.18;;
2824;SDS011;1420;51.324;12.344;2022-11-14T13:14:00;20.36;;;5.42;;
2824;SDS011;1420;51.324;12.344;2022-11-14T13:16:32;22.06;;;8.28;;
2824;SDS011;1420;51.324;12.344;2022-11-14T13:19:17;19.20;;;5.94;;
2824;SDS011;1420;51.324;12.344;2022-11-14T13:27:36;19.04;;;6.06;;
2824;SDS011;1420;51.324;12.344;2022-11-14T13:30:04;20.34;;;6.06;;
2824;SDS011;1420;51.324;12.344;2022-11-14T13:35:25;21.30;;;5.48;;
2824;SDS011;1420;51.324;12.344;2022-11-14T13:37:58;19.08;;;5.34;;
2824;SDS011;1420;51.324;12.344;2022-11-14T13:43:21;20.80;;;6.28;;
2824;SDS011;1420;51.324;12.344;2022-11-14T13:46:23;18.90;;;6.22;;
2824;SDS011;1420;51.324;12.344;2022-11-14T13:51:44;20.02;;;5.74;;
2824;SDS011;1420;51.324;12.344;2022-11-14T13:54:12;19.50;;;6.12;;
2824;SDS011;1420;51.324;12.344;2022-11-14T13:59:32;18.80;;;4.54;;
2824;SDS011;1420;51.324;12.344;2022-11-14T14:02:21;21.02;;;5.70;;
2824;SDS011;1420;51.324;12.344;2022-11-14T14:07:43;19.50;;;5.34;;
2824;SDS011;1420;51.324;12.344;2022-11-14T14:10:25;18.20;;;4.92;;
2824;SDS011;1420;51.324;12.344;2022-11-14T14:15:45;20.84;;;5.62;;
2824;SDS011;1420;51.324;12.344;2022-11-14T14:18:17;18.28;;;5.52;;
2824;SDS011;1420;51.324;12.344;2022-11-14T14:20:44;21.22;;;6.26;;
2824;SDS011;1420;51.324;12.344;2022-11-14T14:23:16;19.24;;;5.82;;
2824;SDS011;1420;51.324;12.344;2022-11-14T14:25:44;21.00;;;6.28;;
2824;SDS011;1420;51.324;12.344;2022-11-14T14:28:32;18.54;;;5.32;;
2824;SDS011;1420;51.324;12.344;2022-11-14T14:31:15;19.78;;;5.86;;
2824;SDS011;1420;51.324;12.344;2022-11-14T14:33:42;18.32;;;5.04;;
2824;SDS011;1420;51.324;12.344;2022-11-14T14:36:16;21.00;;;6.88;;
2824;SDS011;1420;51.324;12.344;2022-11-14T14:38:45;21.74;;;6.76;;
2824;SDS011;1420;51.324;12.344;2022-11-14T14:41:12;18.00;;;5.82;;
2824;SDS011;1420;51.324;12.344;2022-11-14T14:43:39;20.46;;;5.84;;
2824;SDS011;1420;51.324;12.344;2022-11-14T14:46:06;20.80;;;6.88;;
2824;SDS011;1420;51.324;12.344;2022-11-14T14:48:34;19.46;;;6.38;;
2824;SDS011;1420;51.324;12.344;2022-11-14T14:51:00;21.42;;;6.34;;
2824;SDS011;1420;51.324;12.344;2022-11-14T14:53:30;18.34;;;5.20;;
2824;SDS011;1420;51.324;12.344;2022-11-14T14:55:58;25.62;;;10.06;;
2824;SDS011;1420;51.324;12.344;2022-11-14T14:58:25;18.72;;;6.28;;
2824;SDS011;1420;51.324;12.344;2022-11-14T15:00:53;19.50;;;5.74;;
2824;SDS011;1420;51.324;12.344;2022-11-14T15:03:25;21.58;;;8.86;;
2824;SDS011;1420;51.324;12.344;2022-11-14T15:05:57;19.50;;;5.36;;
2824;SDS011;1420;51.324;12.344;2022-11-14T15:08:35;22.40;;;6.96;;
2824;SDS011;1420;51.324;12.344;2022-11-14T15:11:02;20.77;;;10.37;;
2824;SDS011;1420;51.324;12.344;2022-11-14T15:13:29;21.56;;;6.12;;
2824;SDS011;1420;51.324;12.344;2022-11-14T15:15:56;24.94;;;7.36;;
2824;SDS011;1420;51.324;12.344;2022-11-14T15:23:37;22.80;;;6.06;;
2824;SDS011;1420;51.324;12.344;2022-11-14T15:26:09;21.23;;;5.88;;
2824;SDS011;1420;51.324;12.344;2022-11-14T15:28:31;20.00;;;7.22;;
2824;SDS011;1420;51.324;12.344;2022-11-14T15:31:01;22.80;;;7.02;;
2824;SDS011;1420;51.324;12.344;2022-11-14T15:33:28;19.35;;;6.10;;
2824;SDS011;1420;51.324;12.344;2022-11-14T15:38:30;20.72;;;7.17;;
2824;SDS011;1420;51.324;12.344;2022-11-14T15:43:47;20.43;;;6.83;;
2824;SDS011;1420;51.324;12.344;2022-11-14T15:48:51;27.10;;;8.53;;
2824;SDS011;1420;51.324;12.344;2022-11-14T15:51:36;23.45;;;8.97;;
2824;SDS011;1420;51.324;12.344;2022-11-14T15:53:53;22.72;;;6.57;;
2824;SDS011;1420;51.324;12.344;2022-11-14T15:56:20;23.23;;;8.22;;
2824;SDS011;1420;51.324;12.344;2022-11-14T15:58:48;20.35;;;6.67;;
2824;SDS011;1420;51.324;12.344;2022-11-14T16:01:17;23.47;;;9.78;;
2824;SDS011;1420;51.324;12.344;2022-11-14T16:03:43;21.68;;;6.75;;